createdAt,value
2018-11-06T00:01:35.415Z,6.74
2018-11-06T00:06:28.715Z,6.68
2018-11-06T00:11:21.989Z,6.55
2018-11-06T00:16:15.238Z,6.55
2018-11-06T00:21:08.563Z,6.54
2018-11-06T00:26:01.940Z,6.55
2018-11-06T00:30:55.264Z,6.50
2018-11-06T00:35:48.874Z,6.44
2018-11-06T00:40:42.403Z,6.40
2018-11-06T00:45:35.843Z,6.44
2018-11-06T00:50:29.097Z,6.41
2018-11-06T00:55:22.745Z,6.32
2018-11-06T01:00:17.301Z,6.25
2018-11-06T01:05:11.665Z,6.14
2018-11-06T01:10:06.135Z,6.03
2018-11-06T01:15:00.895Z,6.00
2018-11-06T01:19:54.134Z,6.09
2018-11-06T01:24:47.374Z,6.10
2018-11-06T01:29:40.606Z,6.11
2018-11-06T01:34:33.875Z,6.19
2018-11-06T01:39:27.061Z,6.16
2018-11-06T01:44:20.260Z,6.30
2018-11-06T01:49:13.712Z,6.30
2018-11-06T01:54:07.075Z,6.22
2018-11-06T01:59:00.245Z,6.24
2018-11-06T02:03:53.452Z,6.33
2018-11-06T02:08:46.683Z,6.41
2018-11-06T02:13:39.912Z,6.53
2018-11-06T02:18:32.981Z,6.41
2018-11-06T02:23:26.751Z,6.51
2018-11-06T02:28:19.954Z,6.46
2018-11-06T02:33:13.201Z,6.34
2018-11-06T02:38:06.478Z,6.15
2018-11-06T02:43:01.712Z,6.30
2018-11-06T02:47:54.920Z,6.21
2018-11-06T02:52:48.044Z,6.39
2018-11-06T02:57:41.834Z,6.59
2018-11-06T03:02:35.081Z,6.69
2018-11-06T03:07:28.303Z,6.64
2018-11-06T03:12:21.558Z,6.67
2018-11-06T03:17:14.761Z,6.69
2018-11-06T03:22:08.025Z,6.90
2018-11-06T03:27:01.220Z,7.02
2018-11-06T03:31:54.645Z,7.08
2018-11-06T03:36:47.793Z,7.03
2018-11-06T03:41:43.010Z,7.20
2018-11-06T03:46:36.275Z,7.13
2018-11-06T03:51:30.944Z,7.14
2018-11-06T03:56:24.074Z,7.31
2018-11-06T04:01:17.390Z,7.60
2018-11-06T04:06:10.628Z,7.75
2018-11-06T04:11:03.998Z,7.93
2018-11-06T04:15:57.211Z,8.10
2018-11-06T04:20:50.439Z,8.15
2018-11-06T04:25:43.650Z,8.21
2018-11-06T04:30:36.887Z,8.15
2018-11-06T04:35:30.219Z,8.03
2018-11-06T04:40:23.504Z,8.18
2018-11-06T04:45:16.927Z,8.22
2018-11-06T04:50:11.016Z,8.20
2018-11-06T04:55:04.547Z,8.26
2018-11-06T04:59:57.708Z,8.46
2018-11-06T05:04:50.979Z,8.68
2018-11-06T05:09:44.338Z,8.93
2018-11-06T05:14:41.311Z,9.06
2018-11-06T05:19:34.561Z,9.34
2018-11-06T05:24:27.769Z,9.47
2018-11-06T05:29:21.312Z,9.70
2018-11-06T05:34:14.482Z,9.74
2018-11-06T05:39:09.791Z,9.93
2018-11-06T05:44:03.034Z,10.11
2018-11-06T05:48:56.304Z,10.13
2018-11-06T05:53:49.537Z,10.27
2018-11-06T05:58:42.914Z,10.31
2018-11-06T06:03:36.067Z,10.34
2018-11-06T06:08:29.403Z,10.28
2018-11-06T06:13:22.628Z,10.43
2018-11-06T06:18:15.738Z,10.32
2018-11-06T06:23:08.993Z,10.46
2018-11-06T06:28:02.131Z,10.45
2018-11-06T06:32:58.509Z,10.64
2018-11-06T06:37:51.895Z,10.70
2018-11-06T06:42:45.610Z,10.93
2018-11-06T06:47:38.967Z,10.99
2018-11-06T06:52:34.139Z,11.05
2018-11-06T06:57:27.372Z,11.20
2018-11-06T07:02:20.578Z,11.06
2018-11-06T07:07:13.799Z,11.20
2018-11-06T07:12:06.893Z,11.44
2018-11-06T07:17:00.170Z,11.67
2018-11-06T07:21:53.343Z,11.86
2018-11-06T07:26:46.518Z,12.19
2018-11-06T07:31:40.994Z,12.43
2018-11-06T07:36:34.931Z,12.70
2018-11-06T07:41:28.575Z,12.89
2018-11-06T07:46:21.789Z,12.94
2018-11-06T07:51:15.026Z,13.57
2018-11-06T07:56:08.472Z,13.95
2018-11-06T08:01:01.687Z,14.22
2018-11-06T08:05:54.915Z,14.47
2018-11-06T08:10:48.110Z,14.53
2018-11-06T08:15:41.256Z,14.57
2018-11-06T08:20:34.399Z,14.77
2018-11-06T08:25:27.577Z,14.94
2018-11-06T08:30:20.781Z,15.07
2018-11-06T08:35:17.775Z,15.32
2018-11-06T08:40:12.799Z,15.29
2018-11-06T08:45:08.716Z,15.51
2018-11-06T08:50:01.888Z,15.50
2018-11-06T08:54:55.054Z,15.49
2018-11-06T08:59:48.299Z,15.32
2018-11-06T09:04:41.575Z,15.60
2018-11-06T09:09:34.781Z,16.02
2018-11-06T09:14:28.014Z,16.27
2018-11-06T09:19:21.279Z,16.60
2018-11-06T09:24:14.962Z,16.69
2018-11-06T09:29:08.226Z,16.44
2018-11-06T09:34:04.946Z,16.33
2018-11-06T09:38:58.163Z,16.47
2018-11-06T09:43:51.388Z,16.52
2018-11-06T09:48:45.233Z,16.68
2018-11-06T09:53:38.708Z,16.78
2018-11-06T09:58:31.856Z,17.03
2018-11-06T10:03:24.976Z,16.77
2018-11-06T10:08:18.772Z,16.78
2018-11-06T10:13:11.892Z,16.46
2018-11-06T10:18:05.775Z,16.03
2018-11-06T10:23:02.553Z,15.78
2018-11-06T10:27:55.807Z,15.56
2018-11-06T10:32:49.127Z,15.43
2018-11-06T10:37:42.282Z,15.65
2018-11-06T10:42:38.637Z,15.54
2018-11-06T10:47:32.260Z,15.71
2018-11-06T10:52:25.498Z,15.65
2018-11-06T10:57:19.019Z,15.97
2018-11-06T11:02:19.903Z,16.12
2018-11-06T11:07:13.593Z,16.08
2018-11-06T11:12:06.746Z,16.10
2018-11-06T11:16:59.984Z,16.36
2018-11-06T11:21:58.034Z,16.67
2018-11-06T11:26:51.245Z,16.85
2018-11-06T11:31:44.376Z,17.07
2018-11-06T11:36:37.732Z,16.94
2018-11-06T11:41:30.999Z,16.70
2018-11-06T11:46:24.130Z,16.71
2018-11-06T11:51:17.221Z,16.43
2018-11-06T11:56:10.392Z,16.44
2018-11-06T12:01:03.508Z,16.58
2018-11-06T12:05:56.626Z,16.85
2018-11-06T12:10:49.728Z,17.05
2018-11-06T12:15:43.304Z,17.10
2018-11-06T12:20:36.432Z,17.15
2018-11-06T12:25:29.965Z,16.91
2018-11-06T12:30:23.142Z,16.92
2018-11-06T12:39:36.355Z,16.86
2018-11-06T12:44:30.468Z,16.77
2018-11-06T12:49:23.846Z,16.65
2018-11-06T12:54:17.180Z,16.46
2018-11-06T12:59:10.588Z,16.46
2018-11-06T13:04:03.973Z,16.41
2018-11-06T13:08:57.365Z,16.33
2018-11-06T13:13:51.171Z,16.26
2018-11-06T13:18:44.570Z,16.24
2018-11-06T13:23:37.984Z,16.39
2018-11-06T13:28:31.442Z,16.44
2018-11-06T13:33:24.885Z,16.49
2018-11-06T13:38:18.260Z,16.54
2018-11-06T13:43:11.567Z,16.46
2018-11-06T13:48:05.055Z,16.36
2018-11-06T13:52:58.501Z,16.30
2018-11-06T13:57:51.999Z,16.14
2018-11-06T14:02:45.501Z,15.91
2018-11-06T14:07:38.961Z,15.97
2018-11-06T14:12:32.308Z,16.01
2018-11-06T14:17:25.710Z,15.76
2018-11-06T14:22:19.096Z,15.62
2018-11-06T14:27:12.710Z,15.56
2018-11-06T14:32:06.621Z,15.54
2018-11-06T14:36:59.991Z,15.52
2018-11-06T14:41:53.422Z,15.47
2018-11-06T14:46:46.851Z,15.39
2018-11-06T14:51:40.293Z,15.34
2018-11-06T14:56:34.153Z,15.30
2018-11-06T15:01:27.901Z,15.23
2018-11-06T15:06:21.203Z,15.20
2018-11-06T15:11:14.633Z,15.19
2018-11-06T15:16:08.000Z,15.01
2018-11-06T15:21:01.369Z,14.86
2018-11-06T15:25:54.763Z,14.80
2018-11-06T15:30:48.047Z,14.84
2018-11-06T15:35:41.523Z,14.89
2018-11-06T15:40:34.909Z,14.78
2018-11-06T15:45:28.477Z,14.63
2018-11-06T15:50:21.844Z,14.46
2018-11-06T15:55:15.200Z,14.34
2018-11-06T16:00:13.301Z,14.37
2018-11-06T16:05:06.758Z,14.34
2018-11-06T16:10:00.266Z,14.28
2018-11-06T16:14:53.639Z,14.13
2018-11-06T16:19:47.099Z,13.95
2018-11-06T16:24:40.445Z,13.83
2018-11-06T16:29:33.859Z,13.76
2018-11-06T16:34:27.188Z,13.71
2018-11-06T16:39:20.664Z,13.49
2018-11-06T16:44:14.175Z,13.35
2018-11-06T16:49:07.664Z,13.28
2018-11-06T16:54:02.187Z,13.31
2018-11-06T16:58:55.618Z,13.25
2018-11-06T17:03:48.962Z,13.15
2018-11-06T17:08:43.686Z,13.04
2018-11-06T17:13:37.154Z,13.00
2018-11-06T17:18:30.548Z,13.04
2018-11-06T17:23:23.912Z,12.96
2018-11-06T17:28:17.279Z,12.79
2018-11-06T17:33:10.697Z,12.63
2018-11-06T17:38:04.242Z,12.43
2018-11-06T17:42:57.660Z,12.20
2018-11-06T17:47:51.046Z,12.16
2018-11-06T17:52:44.566Z,12.09
2018-11-06T17:57:38.483Z,12.02
2018-11-06T18:02:32.051Z,11.92
2018-11-06T18:07:25.455Z,11.81
2018-11-06T18:12:19.152Z,11.56
2018-11-06T18:17:12.729Z,11.46
2018-11-06T18:22:06.478Z,11.39
2018-11-06T18:27:00.019Z,11.45
2018-11-06T18:31:53.917Z,11.56
2018-11-06T18:36:47.623Z,11.38
2018-11-06T18:41:41.269Z,11.52
2018-11-06T18:46:34.887Z,11.57
2018-11-06T18:51:28.359Z,11.49
2018-11-06T18:56:21.832Z,11.50
2018-11-06T19:01:15.495Z,11.50
2018-11-06T19:06:10.325Z,11.36
2018-11-06T19:11:03.883Z,11.30
2018-11-06T19:15:57.249Z,11.23
2018-11-06T19:20:50.850Z,11.36
2018-11-06T19:25:44.278Z,11.49
2018-11-06T19:30:37.858Z,11.49
2018-11-06T19:35:35.141Z,11.44
2018-11-06T19:40:28.662Z,11.43
2018-11-06T19:45:22.271Z,11.40
2018-11-06T19:50:17.281Z,11.50
2018-11-06T19:55:12.174Z,11.67
2018-11-06T20:00:11.870Z,11.83
2018-11-06T20:05:05.939Z,11.84
2018-11-06T20:09:59.425Z,12.00
2018-11-06T20:14:52.953Z,12.06
2018-11-06T20:19:46.421Z,12.13
2018-11-06T20:24:39.934Z,12.13
2018-11-06T20:29:33.458Z,12.12
2018-11-06T20:34:26.880Z,12.25
2018-11-06T20:39:20.568Z,12.33
2018-11-06T20:44:14.366Z,12.39
2018-11-06T20:49:08.034Z,12.41
2018-11-06T20:54:01.523Z,12.50
2018-11-06T20:58:55.232Z,12.41
2018-11-06T21:03:49.395Z,12.55
2018-11-06T21:08:43.293Z,12.54
2018-11-06T21:13:37.060Z,12.47
2018-11-06T21:18:30.804Z,12.53
2018-11-06T21:23:24.415Z,12.55
2018-11-06T21:28:17.982Z,12.58
2018-11-06T21:33:11.501Z,12.62
2018-11-06T21:38:05.060Z,12.64
2018-11-06T21:42:58.720Z,12.52
2018-11-06T21:47:52.197Z,12.55
2018-11-06T21:52:45.766Z,12.58
2018-11-06T21:57:39.419Z,12.59
2018-11-06T22:02:32.920Z,12.61
2018-11-06T22:07:26.362Z,12.58
2018-11-06T22:12:19.907Z,12.57
2018-11-06T22:17:13.743Z,12.55
2018-11-06T22:22:07.961Z,12.50
2018-11-06T22:27:01.741Z,12.53
2018-11-06T22:31:55.411Z,12.55
2018-11-06T22:36:48.898Z,12.52
2018-11-06T22:41:42.418Z,12.53
2018-11-06T22:46:36.455Z,12.46
2018-11-06T22:51:30.113Z,12.51
2018-11-06T22:56:23.844Z,12.56
2018-11-06T23:06:25.020Z,12.34
2018-11-06T23:11:18.527Z,12.41
2018-11-06T23:16:12.225Z,12.45
2018-11-06T23:21:06.139Z,12.35
2018-11-06T23:26:00.567Z,12.35
2018-11-06T23:30:54.266Z,12.10
2018-11-06T23:35:47.862Z,12.14
2018-11-06T23:40:41.355Z,12.19
2018-11-06T23:45:34.830Z,12.17
2018-11-06T23:50:29.363Z,12.12
2018-11-06T23:55:23.039Z,12.04
